Time;durP1;ratioP1;P1;durP2;ratioP2;P2;SDS_P1;SDS_P2;PMS_P1;PMS_P2;Temp;Humidity;BMP_temperature;BMP_pressure;BME280_temperature;BME280_humidity;BME280_pressure;Samples;Min_cycle;Max_cycle;Signal;HPM_P1;HPM_P2
2021/07/10 00:01:07;;;;;;;20.02;13.60;;;;;;;;;;5015089;28;20085;-68
2021/07/10 00:03:33;;;;;;;21.38;15.60;;;;;;;;;;5015174;28;20493;-68
2021/07/10 00:06:00;;;;;;;13.75;11.85;;;;;;;;;;5014981;28;20041;-68
2021/07/10 00:08:27;;;;;;;14.07;11.80;;;;;;;;;;5014965;28;20089;-69
2021/07/10 00:10:53;;;;;;;14.68;11.18;;;;;;;;;;5014927;28;20053;-69
2021/07/10 00:13:20;;;;;;;13.70;12.27;;;;;;;;;;5014912;28;20084;-69
2021/07/10 00:15:46;;;;;;;14.07;11.75;;;;;;;;;;5014891;28;20087;-68
2021/07/10 00:18:13;;;;;;;19.17;13.68;;;;;;;;;;5014867;28;20057;-68
2021/07/10 00:20:40;;;;;;;16.00;12.40;;;;;;;;;;5015022;28;20128;-69
2021/07/10 00:23:06;;;;;;;16.40;13.30;;;;;;;;;;5014691;28;20149;-68
2021/07/10 00:25:33;;;;;;;17.60;12.98;;;;;;;;;;5014437;28;20088;-69
2021/07/10 00:27:59;;;;;;;15.82;12.75;;;;;;;;;;5014621;28;20085;-69
2021/07/10 00:30:27;;;;;;;16.58;12.07;;;;;;;;;;5014623;28;20196;-68
2021/07/10 00:32:54;;;;;;;17.90;13.98;;;;;;;;;;5014574;28;20078;-68
2021/07/10 00:35:20;;;;;;;18.67;13.32;;;;;;;;;;5014624;28;20050;-69
2021/07/10 00:37:47;;;;;;;19.02;13.82;;;;;;;;;;5014432;28;20086;-69
2021/07/10 00:40:14;;;;;;;15.40;12.00;;;;;;;;;;5014596;28;20513;-69
2021/07/10 00:42:41;;;;;;;18.05;13.65;;;;;;;;;;5014286;28;20089;-68
2021/07/10 00:45:10;;;;;;;23.35;14.48;;;;;;;;;;5014527;28;20125;-69
2021/07/10 00:47:37;;;;;;;15.52;13.50;;;;;;;;;;5014112;28;20370;-68
2021/07/10 00:50:15;;;;;;;19.80;12.65;;;;;;;;;;5014183;28;20081;-69
2021/07/10 00:52:42;;;;;;;19.13;12.95;;;;;;;;;;5013757;28;20112;-69
2021/07/10 00:55:09;;;;;;;16.38;13.02;;;;;;;;;;5013918;28;20556;-69
2021/07/10 00:57:36;;;;;;;15.55;12.25;;;;;;;;;;5013666;28;20073;-69
2021/07/10 01:00:13;;;;;;;18.13;13.88;;;;;;;;;;5013010;28;20089;-69
2021/07/10 01:02:40;;;;;;;19.60;14.07;;;;;;;;;;5012590;28;20096;-68
2021/07/10 01:05:13;;;;;;;17.80;13.68;;;;;;;;;;5012894;28;20050;-68
2021/07/10 01:07:40;;;;;;;20.05;15.93;;;;;;;;;;5013754;28;20133;-69
2021/07/10 01:10:08;;;;;;;23.33;14.57;;;;;;;;;;5014006;28;20093;-69
2021/07/10 01:12:37;;;;;;;17.40;13.57;;;;;;;;;;5013958;28;20136;-68
2021/07/10 01:15:08;;;;;;;18.00;14.05;;;;;;;;;;5023247;28;20053;-69
2021/07/10 01:17:35;;;;;;;18.65;14.20;;;;;;;;;;5033567;28;20045;-69
2021/07/10 01:20:08;;;;;;;24.55;17.13;;;;;;;;;;5033332;28;20551;-68
2021/07/10 01:22:38;;;;;;;;;;;;;;;;;;5033740;28;20157;-69
2021/07/10 01:25:07;;;;;;;21.38;14.30;;;;;;;;;;5033481;28;19972;-69
2021/07/10 01:27:34;;;;;;;21.33;14.98;;;;;;;;;;5033113;28;20057;-68
2021/07/10 01:30:52;;;;;;;23.13;16.77;;;;;;;;;;5033144;28;20089;-68
2021/07/10 01:33:19;;;;;;;21.20;16.05;;;;;;;;;;5033357;28;20045;-68
2021/07/10 01:35:45;;;;;;;24.17;16.98;;;;;;;;;;5033176;28;20469;-69
2021/07/10 01:38:13;;;;;;;22.05;15.48;;;;;;;;;;5033127;28;20084;-68
2021/07/10 01:40:40;;;;;;;24.15;16.58;;;;;;;;;;5033072;28;20053;-68
2021/07/10 01:43:07;;;;;;;20.45;15.65;;;;;;;;;;5032905;28;20076;-69
2021/07/10 01:45:35;;;;;;;25.00;16.00;;;;;;;;;;5032886;28;20088;-68
2021/07/10 01:48:04;;;;;;;20.00;14.55;;;;;;;;;;5032949;28;20057;-68
2021/07/10 01:50:30;;;;;;;19.85;14.35;;;;;;;;;;5025767;28;20077;-68
2021/07/10 01:52:57;;;;;;;17.23;14.20;;;;;;;;;;5012997;28;20108;-69
2021/07/10 01:55:24;;;;;;;22.80;14.98;;;;;;;;;;5011850;28;20050;-68
2021/07/10 01:57:52;;;;;;;16.70;13.55;;;;;;;;;;5012957;28;20086;-68
2021/07/10 02:00:26;;;;;;;19.65;14.27;;;;;;;;;;5012743;28;20077;-68
2021/07/10 02:02:54;;;;;;;17.92;12.75;;;;;;;;;;5012654;28;20119;-68
2021/07/10 02:05:22;;;;;;;17.75;13.95;;;;;;;;;;5013200;28;20077;-69
2021/07/10 02:07:50;;;;;;;15.25;13.52;;;;;;;;;;5012029;28;20481;-68
2021/07/10 02:10:18;;;;;;;21.58;14.25;;;;;;;;;;5012679;28;20046;-68
2021/07/10 02:12:49;;;;;;;16.80;13.77;;;;;;;;;;4995504;28;20093;-69
2021/07/10 02:15:16;;;;;;;20.85;15.18;;;;;;;;;;5012758;28;20096;-68
2021/07/10 02:17:44;;;;;;;22.15;15.38;;;;;;;;;;5012515;28;20458;-68
2021/07/10 02:20:16;;;;;;;21.17;15.60;;;;;;;;;;5012699;28;20069;-67
2021/07/10 02:22:43;;;;;;;18.50;15.57;;;;;;;;;;5012503;28;20085;-68
2021/07/10 02:25:11;;;;;;;28.88;19.15;;;;;;;;;;5012505;28;20096;-68
2021/07/10 02:27:38;;;;;;;25.67;18.17;;;;;;;;;;5012298;28;20105;-68
2021/07/10 02:30:06;;;;;;;26.48;17.90;;;;;;;;;;5012572;28;20472;-69
2021/07/10 02:32:32;;;;;;;21.85;16.40;;;;;;;;;;5035542;22;20069;-72
2021/07/10 02:34:59;;;;;;;22.17;15.93;;;;;;;;;;5012119;28;20559;-72
2021/07/10 02:37:26;;;;;;;20.17;16.23;;;;;;;;;;5012252;28;20496;-71
2021/07/10 02:39:53;;;;;;;21.67;15.20;;;;;;;;;;5012260;28;20146;-71
2021/07/10 02:42:19;;;;;;;20.02;15.85;;;;;;;;;;5012028;28;20101;-71
2021/07/10 02:44:46;;;;;;;25.65;15.70;;;;;;;;;;5012219;28;20390;-71
2021/07/10 02:47:12;;;;;;;22.30;15.88;;;;;;;;;;5011967;28;20078;-71
2021/07/10 02:49:39;;;;;;;19.33;15.57;;;;;;;;;;5012189;28;20077;-71
2021/07/10 02:52:08;;;;;;;23.05;16.08;;;;;;;;;;5010590;28;20050;-71
2021/07/10 02:54:37;;;;;;;18.83;15.85;;;;;;;;;;5011914;28;20472;-71
2021/07/10 02:57:04;;;;;;;21.23;16.27;;;;;;;;;;5012198;28;20070;-71
2021/07/10 02:59:31;;;;;;;27.48;16.98;;;;;;;;;;5012000;28;20096;-71
2021/07/10 03:01:57;;;;;;;23.30;15.90;;;;;;;;;;5011903;28;20492;-71
2021/07/10 03:04:24;;;;;;;19.42;14.75;;;;;;;;;;5011900;28;20082;-71
2021/07/10 03:06:50;;;;;;;19.55;15.40;;;;;;;;;;5012040;28;20073;-71
2021/07/10 03:09:17;;;;;;;22.85;15.02;;;;;;;;;;5011789;28;20049;-71
2021/07/10 03:11:44;;;;;;;20.08;15.93;;;;;;;;;;5011633;28;20093;-71
2021/07/10 03:14:10;;;;;;;18.67;14.93;;;;;;;;;;5012057;28;20523;-71
2021/07/10 03:16:37;;;;;;;34.70;16.27;;;;;;;;;;5011838;28;20108;-71
2021/07/10 03:19:03;;;;;;;26.85;16.60;;;;;;;;;;5014492;28;20080;-71
2021/07/10 03:21:30;;;;;;;31.27;15.75;;;;;;;;;;5015614;28;20081;-71
2021/07/10 03:23:56;;;;;;;24.27;15.18;;;;;;;;;;5015722;28;20078;-71
2021/07/10 03:26:23;;;;;;;21.05;14.30;;;;;;;;;;5015758;28;20073;-71
2021/07/10 03:28:50;;;;;;;20.20;15.02;;;;;;;;;;5015834;28;20077;-71
2021/07/10 03:31:16;;;;;;;26.65;14.60;;;;;;;;;;5015390;28;20104;-71
2021/07/10 03:33:44;;;;;;;28.50;14.38;;;;;;;;;;5015622;28;20058;-71
2021/07/10 03:36:11;;;;;;;25.05;14.45;;;;;;;;;;5015617;28;20050;-71
2021/07/10 03:38:44;;;;;;;24.95;14.50;;;;;;;;;;5015750;28;20075;-71
2021/07/10 03:41:12;;;;;;;41.75;15.90;;;;;;;;;;5014313;28;20562;-71
2021/07/10 03:43:38;;;;;;;32.08;15.18;;;;;;;;;;5015493;28;20097;-71
2021/07/10 03:46:05;;;;;;;54.22;15.00;;;;;;;;;;5015356;28;20092;-71
2021/07/10 03:48:31;;;;;;;27.50;14.90;;;;;;;;;;5015372;28;20046;-71
2021/07/10 03:50:59;;;;;;;27.55;13.65;;;;;;;;;;5015262;28;20093;-71
2021/07/10 03:53:26;;;;;;;25.90;13.75;;;;;;;;;;5015151;28;20053;-71
2021/07/10 03:55:52;;;;;;;19.90;14.50;;;;;;;;;;5015278;28;20046;-71
2021/07/10 03:58:19;;;;;;;21.63;15.27;;;;;;;;;;5015174;28;20065;-71
2021/07/10 04:00:45;;;;;;;25.33;14.65;;;;;;;;;;5015109;28;20523;-71
2021/07/10 04:03:12;;;;;;;15.63;13.75;;;;;;;;;;5014815;28;20631;-71
2021/07/10 04:05:38;;;;;;;16.00;13.65;;;;;;;;;;5014992;28;20608;-71
2021/07/10 04:08:05;;;;;;;19.40;14.70;;;;;;;;;;5014902;28;20085;-71
2021/07/10 04:10:32;;;;;;;17.63;14.60;;;;;;;;;;5014832;28;20089;-71
2021/07/10 04:12:58;;;;;;;16.02;13.20;;;;;;;;;;5014852;28;20061;-71
2021/07/10 04:15:25;;;;;;;17.75;15.55;;;;;;;;;;5014680;28;20505;-71
2021/07/10 04:17:51;;;;;;;18.40;13.40;;;;;;;;;;5015068;28;20089;-71
2021/07/10 04:20:18;;;;;;;16.08;13.18;;;;;;;;;;5014713;28;20053;-71
2021/07/10 04:22:46;;;;;;;18.85;13.50;;;;;;;;;;5014430;28;20081;-71
2021/07/10 04:25:15;;;;;;;16.92;13.93;;;;;;;;;;5014546;28;20475;-71
2021/07/10 04:27:43;;;;;;;16.25;12.43;;;;;;;;;;5014744;28;20081;-71
2021/07/10 04:30:12;;;;;;;22.17;13.23;;;;;;;;;;5013410;28;20508;-71
2021/07/10 04:32:38;;;;;;;21.13;12.68;;;;;;;;;;5014343;28;20050;-71
2021/07/10 04:35:06;;;;;;;21.30;12.63;;;;;;;;;;5014282;28;20596;-71
2021/07/10 04:37:32;;;;;;;24.27;12.60;;;;;;;;;;5014413;28;20145;-71
2021/07/10 04:39:59;;;;;;;22.98;12.05;;;;;;;;;;5014469;28;20045;-71
2021/07/10 04:42:28;;;;;;;19.65;13.27;;;;;;;;;;5014002;28;20424;-71
2021/07/10 04:44:55;;;;;;;21.55;13.20;;;;;;;;;;5014154;28;20054;-70
2021/07/10 04:47:22;;;;;;;42.25;13.40;;;;;;;;;;5014271;28;20453;-71
2021/07/10 04:49:48;;;;;;;20.90;13.20;;;;;;;;;;5014375;28;20134;-71
2021/07/10 04:52:15;;;;;;;15.20;13.52;;;;;;;;;;5013482;28;20130;-72
2021/07/10 04:54:41;;;;;;;25.00;13.40;;;;;;;;;;5014434;28;20077;-72
2021/07/10 04:57:08;;;;;;;27.77;12.98;;;;;;;;;;5013964;28;20512;-72
2021/07/10 04:59:34;;;;;;;25.27;13.70;;;;;;;;;;5013993;28;20094;-72
2021/07/10 05:02:01;;;;;;;18.73;12.77;;;;;;;;;;5012387;28;20461;-72
2021/07/10 05:04:28;;;;;;;16.33;12.95;;;;;;;;;;5012707;28;20145;-72
2021/07/10 05:06:54;;;;;;;18.75;14.68;;;;;;;;;;5013701;28;20145;-72
2021/07/10 05:09:21;;;;;;;15.02;13.18;;;;;;;;;;5013839;28;20090;-72
2021/07/10 05:11:48;;;;;;;17.75;13.63;;;;;;;;;;5013442;28;20124;-72
2021/07/10 05:14:15;;;;;;;16.65;13.32;;;;;;;;;;5013880;28;20146;-72
2021/07/10 05:16:42;;;;;;;14.98;12.48;;;;;;;;;;5013751;28;20129;-72
2021/07/10 05:19:09;;;;;;;14.27;12.70;;;;;;;;;;5013814;28;20054;-72
2021/07/10 05:21:35;;;;;;;18.35;14.00;;;;;;;;;;5013346;28;20049;-72
2021/07/10 05:24:02;;;;;;;16.38;13.52;;;;;;;;;;5013598;28;20077;-72
2021/07/10 05:26:29;;;;;;;13.77;12.38;;;;;;;;;;5013192;28;20085;-72
2021/07/10 05:28:56;;;;;;;16.65;13.05;;;;;;;;;;5013451;28;20458;-72
2021/07/10 05:31:22;;;;;;;12.73;11.50;;;;;;;;;;5013088;28;20096;-72
2021/07/10 05:33:50;;;;;;;13.35;11.95;;;;;;;;;;5012097;28;20432;-71
2021/07/10 05:36:16;;;;;;;14.20;12.70;;;;;;;;;;5013279;28;20053;-71
2021/07/10 05:38:43;;;;;;;11.95;10.75;;;;;;;;;;5013253;28;20073;-71
2021/07/10 05:41:10;;;;;;;14.27;12.85;;;;;;;;;;5012979;28;20077;-71
2021/07/10 05:43:37;;;;;;;13.57;12.18;;;;;;;;;;5012627;28;20126;-72
2021/07/10 05:46:06;;;;;;;15.52;13.38;;;;;;;;;;5013150;28;20504;-72
2021/07/10 05:48:33;;;;;;;17.50;14.15;;;;;;;;;;5012970;28;20077;-72
2021/07/10 05:51:00;;;;;;;18.35;13.93;;;;;;;;;;5013021;28;20058;-72
2021/07/10 05:53:26;;;;;;;16.30;13.05;;;;;;;;;;5013012;28;20053;-72
2021/07/10 05:55:53;;;;;;;16.75;13.65;;;;;;;;;;5013337;28;20077;-72
2021/07/10 05:58:19;;;;;;;17.00;13.95;;;;;;;;;;5011759;28;20104;-72
2021/07/10 06:00:46;;;;;;;17.70;14.48;;;;;;;;;;5004665;28;20509;-72
2021/07/10 06:03:12;;;;;;;18.13;15.98;;;;;;;;;;4993183;28;20528;-72
2021/07/10 06:05:39;;;;;;;19.02;16.27;;;;;;;;;;4993158;28;20055;-72
2021/07/10 06:08:06;;;;;;;17.70;15.35;;;;;;;;;;4993355;28;20042;-72
2021/07/10 06:10:32;;;;;;;17.00;14.85;;;;;;;;;;4993059;28;20145;-72
2021/07/10 06:12:59;;;;;;;17.38;14.68;;;;;;;;;;5010874;28;20133;-72
2021/07/10 06:15:26;;;;;;;18.52;14.30;;;;;;;;;;5012702;28;20050;-72
2021/07/10 06:17:52;;;;;;;15.93;13.38;;;;;;;;;;5012731;28;20081;-72
2021/07/10 06:20:21;;;;;;;17.92;14.23;;;;;;;;;;5009644;28;20111;-72
2021/07/10 06:22:50;;;;;;;17.45;13.48;;;;;;;;;;5010599;28;20065;-72
2021/07/10 06:25:17;;;;;;;17.63;14.10;;;;;;;;;;5009202;28;20049;-72
2021/07/10 06:27:45;;;;;;;15.13;13.52;;;;;;;;;;5010440;28;20615;-72
2021/07/10 06:30:12;;;;;;;14.13;12.63;;;;;;;;;;5010725;28;20531;-72
2021/07/10 06:32:39;;;;;;;15.00;13.40;;;;;;;;;;5009762;28;20088;-72
2021/07/10 06:35:07;;;;;;;13.07;11.70;;;;;;;;;;5009336;28;20463;-72
2021/07/10 06:37:33;;;;;;;13.25;11.85;;;;;;;;;;5009319;28;20073;-72
2021/07/10 06:40:00;;;;;;;15.73;11.52;;;;;;;;;;5010561;28;20054;-72
2021/07/10 06:42:26;;;;;;;11.60;10.40;;;;;;;;;;5010260;28;20133;-72
2021/07/10 06:44:53;;;;;;;11.00;9.88;;;;;;;;;;5010185;28;20088;-72
2021/07/10 06:47:21;;;;;;;12.45;10.13;;;;;;;;;;5010154;28;20053;-73
2021/07/10 06:49:47;;;;;;;10.38;9.35;;;;;;;;;;5010572;28;20050;-73
2021/07/10 06:52:14;;;;;;;10.32;8.98;;;;;;;;;;5010134;28;20393;-72
2021/07/10 06:54:41;;;;;;;11.90;10.30;;;;;;;;;;5010224;28;20073;-72
2021/07/10 06:57:07;;;;;;;10.60;9.50;;;;;;;;;;5010074;28;20085;-73
2021/07/10 06:59:34;;;;;;;12.93;10.15;;;;;;;;;;5009960;28;20096;-72
2021/07/10 07:02:00;;;;;;;10.40;9.20;;;;;;;;;;5009879;28;20081;-72
2021/07/10 07:04:28;;;;;;;9.48;8.48;;;;;;;;;;5010149;28;20112;-72
2021/07/10 07:06:55;;;;;;;9.88;8.13;;;;;;;;;;5010268;28;20104;-72
2021/07/10 07:09:21;;;;;;;10.63;9.52;;;;;;;;;;5010068;28;20092;-73
2021/07/10 07:11:50;;;;;;;10.15;9.23;;;;;;;;;;5009605;28;20069;-73
2021/07/10 07:14:18;;;;;;;11.80;9.65;;;;;;;;;;5010043;28;20111;-72
2021/07/10 07:16:44;;;;;;;10.18;9.18;;;;;;;;;;5004513;28;20101;-72
2021/07/10 07:19:11;;;;;;;10.25;8.60;;;;;;;;;;4990414;28;20081;-72
2021/07/10 07:21:38;;;;;;;9.35;8.15;;;;;;;;;;5003149;28;20092;-72
2021/07/10 07:24:05;;;;;;;9.00;8.07;;;;;;;;;;5009590;28;20471;-72
2021/07/10 07:26:31;;;;;;;8.35;7.47;;;;;;;;;;5009984;28;20054;-72
2021/07/10 07:28:58;;;;;;;8.68;7.88;;;;;;;;;;5010106;28;20459;-72
2021/07/10 07:31:24;;;;;;;8.13;7.43;;;;;;;;;;5009551;28;20058;-72
2021/07/10 07:33:52;;;;;;;8.85;7.47;;;;;;;;;;5009801;28;20054;-71
2021/07/10 07:36:18;;;;;;;9.07;7.47;;;;;;;;;;5009741;28;20085;-72
2021/07/10 07:38:45;;;;;;;10.98;7.15;;;;;;;;;;5009589;28;20073;-72
2021/07/10 07:41:11;;;;;;;8.90;6.72;;;;;;;;;;5009502;28;20084;-72
2021/07/10 07:43:38;;;;;;;6.43;5.85;;;;;;;;;;5009973;28;20073;-72
2021/07/10 07:46:04;;;;;;;8.02;6.18;;;;;;;;;;5009797;28;20108;-72
2021/07/10 07:48:31;;;;;;;6.10;5.13;;;;;;;;;;5009655;28;20076;-72
2021/07/10 07:50:58;;;;;;;6.18;5.68;;;;;;;;;;5009179;28;20054;-71
2021/07/10 07:53:24;;;;;;;5.93;5.25;;;;;;;;;;5009473;28;20519;-71
2021/07/10 07:55:51;;;;;;;6.28;5.57;;;;;;;;;;5010220;28;20663;-72
2021/07/10 07:58:17;;;;;;;5.47;4.97;;;;;;;;;;5011707;28;20088;-72
2021/07/10 08:00:44;;;;;;;6.10;5.03;;;;;;;;;;5011371;28;20073;-71
2021/07/10 08:03:11;;;;;;;5.60;4.68;;;;;;;;;;5011268;28;20050;-71
2021/07/10 08:05:37;;;;;;;6.00;5.43;;;;;;;;;;5011660;28;20058;-71
2021/07/10 08:08:04;;;;;;;5.72;5.15;;;;;;;;;;5014861;28;20078;-68
2021/07/10 08:10:31;;;;;;;5.60;5.07;;;;;;;;;;5013683;28;20487;-71
2021/07/10 08:12:59;;;;;;;7.20;5.55;;;;;;;;;;5014805;28;20120;-71
2021/07/10 08:15:25;;;;;;;5.95;5.45;;;;;;;;;;5014544;28;20050;-70
2021/07/10 08:17:52;;;;;;;5.57;5.05;;;;;;;;;;5014870;28;20551;-71
2021/07/10 08:20:21;;;;;;;5.32;4.90;;;;;;;;;;5014680;28;20096;-70
2021/07/10 08:22:47;;;;;;;6.47;5.05;;;;;;;;;;5014373;28;20092;-70
2021/07/10 08:25:15;;;;;;;8.35;5.53;;;;;;;;;;5014693;28;20050;-70
2021/07/10 08:27:42;;;;;;;5.53;5.03;;;;;;;;;;5014570;28;20089;-71
2021/07/10 08:30:09;;;;;;;5.22;4.72;;;;;;;;;;5014747;28;20074;-70
2021/07/10 08:32:36;;;;;;;4.93;4.43;;;;;;;;;;5036230;22;20050;-69
2021/07/10 08:35:03;;;;;;;3.72;3.45;;;;;;;;;;5014308;28;20447;-69
2021/07/10 08:37:30;;;;;;;4.88;3.75;;;;;;;;;;5014353;28;20081;-68
2021/07/10 08:39:57;;;;;;;3.60;3.30;;;;;;;;;;5014498;28;20129;-69
2021/07/10 08:42:23;;;;;;;4.70;4.30;;;;;;;;;;5014118;28;20112;-67
2021/07/10 08:44:52;;;;;;;6.03;4.00;;;;;;;;;;5014556;28;20149;-66
2021/07/10 08:47:19;;;;;;;5.85;4.65;;;;;;;;;;5014062;28;20100;-67
2021/07/10 08:49:45;;;;;;;5.75;4.85;;;;;;;;;;5014366;28;20077;-67
2021/07/10 08:52:12;;;;;;;4.80;4.40;;;;;;;;;;5014016;28;20460;-67
2021/07/10 08:54:39;;;;;;;4.63;4.10;;;;;;;;;;5013165;28;20132;-66
2021/07/10 08:57:07;;;;;;;4.47;4.07;;;;;;;;;;5014117;28;20093;-66
2021/07/10 08:59:35;;;;;;;57.40;11.50;;;;;;;;;;5013974;28;20073;-66
2021/07/10 09:02:02;;;;;;;3.80;3.50;;;;;;;;;;5013942;28;20092;-66
2021/07/10 09:04:29;;;;;;;3.40;3.10;;;;;;;;;;5012243;28;20427;-66
2021/07/10 09:06:56;;;;;;;4.00;3.65;;;;;;;;;;5013943;28;20097;-65
2021/07/10 09:09:42;;;;;;;4.43;4.03;;;;;;;;;;5013792;28;20100;-64
2021/07/10 09:12:08;;;;;;;3.92;3.63;;;;;;;;;;5013661;28;20517;-64
2021/07/10 09:14:35;;;;;;;4.93;3.55;;;;;;;;;;5013797;28;20077;-64
2021/07/10 09:17:23;;;;;;;4.82;3.58;;;;;;;;;;5013538;28;20488;-65
2021/07/10 09:19:52;;;;;;;3.33;3.03;;;;;;;;;;5013751;28;20584;-65
2021/07/10 09:22:27;;;;;;;4.28;3.88;;;;;;;;;;5013371;28;20417;-65
2021/07/10 09:24:54;;;;;;;3.97;3.63;;;;;;;;;;5013265;28;20468;-65
2021/07/10 09:27:20;;;;;;;3.60;3.30;;;;;;;;;;5012247;28;20088;-65
2021/07/10 09:29:48;;;;;;;5.75;3.42;;;;;;;;;;5013374;28;20145;-65
2021/07/10 09:32:21;;;;;;;3.63;3.33;;;;;;;;;;5013046;28;20141;-65
2021/07/10 09:34:57;;;;;;;3.28;2.90;;;;;;;;;;5013444;28;20077;-65
2021/07/10 09:37:25;;;;;;;3.33;3.00;;;;;;;;;;5013641;28;20077;-66
2021/07/10 09:40:09;;;;;;;3.80;3.47;;;;;;;;;;5012779;28;20132;-65
2021/07/10 09:42:37;;;;;;;3.65;3.35;;;;;;;;;;5012687;28;20119;-65
2021/07/10 09:45:09;;;;;;;3.22;2.92;;;;;;;;;;5012721;28;20137;-65
2021/07/10 09:47:36;;;;;;;4.35;3.45;;;;;;;;;;5011422;28;20137;-65
2021/07/10 09:50:06;;;;;;;3.50;3.20;;;;;;;;;;5012644;28;20124;-68
2021/07/10 09:52:36;;;;;;;3.80;3.13;;;;;;;;;;5013077;28;20124;-71
2021/07/10 09:55:07;;;;;;;4.50;2.90;;;;;;;;;;5008454;28;20123;-66
2021/07/10 09:57:36;;;;;;;5.13;2.70;;;;;;;;;;5004731;28;20427;-66
2021/07/10 10:00:13;;;;;;;3.95;3.13;;;;;;;;;;5008261;28;20082;-65
2021/07/10 10:02:44;;;;;;;3.15;2.80;;;;;;;;;;5011982;28;20088;-65
2021/07/10 10:05:13;;;;;;;3.10;2.80;;;;;;;;;;5010893;28;20115;-66
2021/07/10 10:07:47;;;;;;;3.40;2.72;;;;;;;;;;5005952;28;20125;-66
2021/07/10 10:10:24;;;;;;;3.13;2.80;;;;;;;;;;5012147;28;20081;-66
2021/07/10 10:13:09;;;;;;;6.82;3.33;;;;;;;;;;5010994;28;20086;-65
2021/07/10 10:15:47;;;;;;;4.57;3.30;;;;;;;;;;5011002;28;20107;-66
2021/07/10 10:18:15;;;;;;;3.50;3.20;;;;;;;;;;5012707;28;20467;-66
2021/07/10 10:20:42;;;;;;;5.28;3.67;;;;;;;;;;5012088;28;20081;-66
2021/07/10 10:23:10;;;;;;;3.13;2.83;;;;;;;;;;5012441;28;20049;-66
2021/07/10 10:25:37;;;;;;;4.18;3.20;;;;;;;;;;5012157;28;20100;-65
2021/07/10 10:28:09;;;;;;;3.75;2.92;;;;;;;;;;5010742;28;20089;-66
2021/07/10 10:30:35;;;;;;;2.83;2.63;;;;;;;;;;5012151;28;20133;-65
2021/07/10 10:33:03;;;;;;;3.75;2.88;;;;;;;;;;5012166;28;20120;-65
2021/07/10 10:35:29;;;;;;;2.83;2.60;;;;;;;;;;5011020;28;20097;-66
2021/07/10 10:37:56;;;;;;;5.28;3.50;;;;;;;;;;5010981;28;20177;-66
2021/07/10 10:40:24;;;;;;;5.65;3.10;;;;;;;;;;5012044;28;20089;-66
2021/07/10 10:42:58;;;;;;;4.65;2.35;;;;;;;;;;5010426;28;20096;-67
2021/07/10 10:45:29;;;;;;;3.00;2.70;;;;;;;;;;4995320;28;20088;-65
2021/07/10 10:47:56;;;;;;;2.55;2.30;;;;;;;;;;5012322;28;20512;-66
2021/07/10 10:50:27;;;;;;;3.15;2.58;;;;;;;;;;5010063;28;20042;-66
2021/07/10 10:52:58;;;;;;;3.20;2.47;;;;;;;;;;5009653;28;20081;-65
2021/07/10 10:55:27;;;;;;;2.70;2.50;;;;;;;;;;5007819;28;20100;-63
2021/07/10 10:57:56;;;;;;;2.70;2.47;;;;;;;;;;5011448;28;20089;-63
2021/07/10 11:00:23;;;;;;;2.38;2.20;;;;;;;;;;5011815;28;20081;-63
2021/07/10 11:02:49;;;;;;;4.75;2.40;;;;;;;;;;5029888;28;20091;-63
2021/07/10 11:05:31;;;;;;;2.35;2.22;;;;;;;;;;5012120;28;20053;-64
2021/07/10 11:08:35;;;;;;;4.38;2.92;;;;;;;;;;5012315;28;20060;-64
2021/07/10 11:11:02;;;;;;;2.95;2.55;;;;;;;;;;5011924;28;20480;-64
2021/07/10 11:13:35;;;;;;;4.32;3.00;;;;;;;;;;5011313;28;20488;-64
2021/07/10 11:16:20;;;;;;;2.85;2.58;;;;;;;;;;5011921;28;20054;-64
2021/07/10 11:18:54;;;;;;;3.00;2.38;;;;;;;;;;5012158;28;20082;-64
2021/07/10 11:26:54;;;;;;;3.08;2.20;;;;;;;;;;5031438;28;20054;-63
2021/07/10 11:29:27;;;;;;;2.80;2.20;;;;;;;;;;5031372;28;20068;-63
2021/07/10 11:32:14;;;;;;;2.38;1.90;;;;;;;;;;5021146;28;20056;-63
2021/07/10 11:34:45;;;;;;;2.88;1.60;;;;;;;;;;5012000;28;20120;-64
2021/07/10 11:37:23;;;;;;;2.83;2.30;;;;;;;;;;5011885;28;20054;-64
2021/07/10 11:39:53;;;;;;;2.75;2.45;;;;;;;;;;5013662;28;20477;-63
2021/07/10 11:42:23;;;;;;;2.45;2.03;;;;;;;;;;5013955;28;20540;-64
2021/07/10 11:45:04;;;;;;;2.60;2.00;;;;;;;;;;5015712;28;20077;-64
2021/07/10 11:47:39;;;;;;;2.90;2.70;;;;;;;;;;5015259;28;20054;-64
2021/07/10 11:50:16;;;;;;;2.33;2.13;;;;;;;;;;5015312;28;20077;-63
2021/07/10 11:53:13;;;;;;;2.47;2.28;;;;;;;;;;5015435;28;20137;-63
2021/07/10 11:55:42;;;;;;;2.50;2.30;;;;;;;;;;5006544;28;20078;-63
2021/07/10 11:58:10;;;;;;;3.67;2.40;;;;;;;;;;5015442;28;20081;-63
2021/07/10 12:00:38;;;;;;;2.88;2.35;;;;;;;;;;5015078;28;20085;-63
2021/07/10 12:03:24;;;;;;;3.55;2.20;;;;;;;;;;5014987;28;20049;-63
2021/07/10 12:05:51;;;;;;;10.98;5.32;;;;;;;;;;5014203;28;20077;-63
2021/07/10 12:08:19;;;;;;;6.32;3.58;;;;;;;;;;5014900;28;20089;-63
2021/07/10 12:10:48;;;;;;;2.22;2.03;;;;;;;;;;5014871;28;20046;-63
2021/07/10 12:13:19;;;;;;;3.83;2.60;;;;;;;;;;5014585;28;20512;-63
2021/07/10 12:16:06;;;;;;;5.43;3.72;;;;;;;;;;5014863;28;20145;-63
2021/07/10 12:18:35;;;;;;;3.47;3.03;;;;;;;;;;5014902;28;20104;-63
2021/07/10 12:21:08;;;;;;;2.40;2.20;;;;;;;;;;5014733;28;20085;-64
2021/07/10 12:23:37;;;;;;;2.17;2.03;;;;;;;;;;4997518;28;20134;-65
2021/07/10 12:26:10;;;;;;;3.45;1.92;;;;;;;;;;5002401;28;20065;-65
2021/07/10 12:28:38;;;;;;;1.92;1.80;;;;;;;;;;5001540;28;20539;-63
2021/07/10 12:31:17;;;;;;;2.40;2.20;;;;;;;;;;4999294;28;20042;-64
2021/07/10 12:33:47;;;;;;;2.47;2.13;;;;;;;;;;5002301;28;20104;-64
2021/07/10 12:36:16;;;;;;;2.33;2.13;;;;;;;;;;5001090;28;20085;-64
2021/07/10 12:38:51;;;;;;;3.03;2.03;;;;;;;;;;5001075;28;20097;-64
2021/07/10 12:41:31;;;;;;;4.45;2.33;;;;;;;;;;5004319;28;20515;-64
2021/07/10 12:44:14;;;;;;;2.83;2.15;;;;;;;;;;5000988;28;20073;-64
2021/07/10 12:46:57;;;;;;;6.85;6.18;;;;;;;;;;5000205;28;20112;-64
2021/07/10 12:49:29;;;;;;;9.15;8.00;;;;;;;;;;5003217;28;20571;-64
2021/07/10 12:51:56;;;;;;;2.88;2.60;;;;;;;;;;5003544;28;20046;-66
2021/07/10 12:54:28;;;;;;;1.90;1.80;;;;;;;;;;4998698;28;20489;-65
2021/07/10 12:56:57;;;;;;;1.60;1.48;;;;;;;;;;5003831;28;20121;-65
2021/07/10 12:59:24;;;;;;;3.40;2.10;;;;;;;;;;5001944;28;20138;-65
2021/07/10 13:01:50;;;;;;;1.90;1.77;;;;;;;;;;5001225;28;20414;-65
2021/07/10 13:04:19;;;;;;;2.97;1.50;;;;;;;;;;5000567;28;20105;-65
2021/07/10 13:06:46;;;;;;;2.25;1.40;;;;;;;;;;5000572;28;20088;-65
2021/07/10 13:09:12;;;;;;;1.60;1.50;;;;;;;;;;5004555;28;20461;-65
2021/07/10 13:11:46;;;;;;;2.97;1.63;;;;;;;;;;4999753;28;20092;-65
2021/07/10 13:14:22;;;;;;;2.30;1.70;;;;;;;;;;5003969;28;20088;-65
2021/07/10 13:16:49;;;;;;;2.17;1.50;;;;;;;;;;5000139;28;20133;-66
2021/07/10 13:19:21;;;;;;;1.58;1.45;;;;;;;;;;5000667;28;20054;-65
2021/07/10 13:21:48;;;;;;;1.70;1.60;;;;;;;;;;4984314;28;20080;-65
2021/07/10 13:24:15;;;;;;;2.25;2.05;;;;;;;;;;4999574;28;20081;-65
2021/07/10 13:26:52;;;;;;;1.67;1.58;;;;;;;;;;5000589;28;20177;-66
2021/07/10 13:29:35;;;;;;;2.40;1.50;;;;;;;;;;5005975;28;20042;-65
2021/07/10 13:32:04;;;;;;;3.97;1.40;;;;;;;;;;5004830;28;20054;-65
2021/07/10 13:34:33;;;;;;;1.65;1.42;;;;;;;;;;5004432;28;20089;-65
2021/07/10 13:37:07;;;;;;;1.50;1.38;;;;;;;;;;5002232;28;20468;-65
2021/07/10 13:39:36;;;;;;;1.60;1.50;;;;;;;;;;5002527;28;20096;-65
2021/07/10 13:42:10;;;;;;;1.80;1.67;;;;;;;;;;5001094;28;20565;-66
2021/07/10 13:44:47;;;;;;;1.85;1.40;;;;;;;;;;5001260;28;20050;-65
2021/07/10 13:47:14;;;;;;;1.75;1.65;;;;;;;;;;5001858;28;20041;-65
2021/07/10 13:49:40;;;;;;;1.88;1.38;;;;;;;;;;5002915;28;20125;-65
2021/07/10 13:52:21;;;;;;;1.60;1.50;;;;;;;;;;5000671;28;20421;-65
2021/07/10 13:54:59;;;;;;;2.97;1.77;;;;;;;;;;5001860;28;20053;-65
2021/07/10 13:57:32;;;;;;;1.90;1.60;;;;;;;;;;5007424;28;20132;-65
2021/07/10 14:00:12;;;;;;;1.77;1.65;;;;;;;;;;5000130;28;20105;-65
2021/07/10 14:02:59;;;;;;;1.67;1.55;;;;;;;;;;5000925;28;20049;-67
2021/07/10 14:05:31;;;;;;;2.58;1.42;;;;;;;;;;5002833;28;20525;-65
2021/07/10 14:08:00;;;;;;;2.22;2.03;;;;;;;;;;5001825;28;20046;-65
2021/07/10 14:10:32;;;;;;;1.75;1.65;;;;;;;;;;5002959;28;20041;-65
2021/07/10 14:13:08;;;;;;;1.40;1.30;;;;;;;;;;5006944;28;20089;-65
2021/07/10 14:15:35;;;;;;;1.67;1.30;;;;;;;;;;5002630;28;20049;-65
2021/07/10 14:18:02;;;;;;;1.52;1.42;;;;;;;;;;5001713;28;20092;-65
2021/07/10 14:20:29;;;;;;;2.40;2.17;;;;;;;;;;5005249;28;20043;-65
2021/07/10 14:23:17;;;;;;;2.20;2.00;;;;;;;;;;5001783;28;20060;-65
2021/07/10 14:25:43;;;;;;;1.90;1.80;;;;;;;;;;5000026;28;20078;-65
2021/07/10 14:28:10;;;;;;;2.25;1.95;;;;;;;;;;5004905;28;20096;-65
2021/07/10 14:30:38;;;;;;;2.05;1.58;;;;;;;;;;5008215;28;20080;-65
2021/07/10 14:33:04;;;;;;;1.60;1.50;;;;;;;;;;5003763;28;20050;-65
2021/07/10 14:35:32;;;;;;;2.55;1.60;;;;;;;;;;5006835;28;20073;-65
2021/07/10 14:37:59;;;;;;;3.03;2.70;;;;;;;;;;5006498;28;20045;-65
2021/07/10 14:40:27;;;;;;;3.55;1.58;;;;;;;;;;5001008;28;20041;-65
2021/07/10 14:42:55;;;;;;;1.55;1.40;;;;;;;;;;5001051;28;20077;-65
2021/07/10 14:45:22;;;;;;;1.67;1.50;;;;;;;;;;4998805;28;20100;-65
2021/07/10 14:47:49;;;;;;;1.65;1.55;;;;;;;;;;4999629;28;20077;-65